Time;durP1;ratioP1;P1;durP2;ratioP2;P2;SDS_P1;SDS_P2;PMS_P1;PMS_P2;Temp;Humidity;BMP_temperature;BMP_pressure;BME280_temperature;BME280_humidity;BME280_pressure;Samples;Min_cycle;Max_cycle;Signal;HPM_P1;HPM_P2
2023/04/25 00:01:49;;;;;;;25.20;4.28;;;;;;;;;;5085777;27;20098;-77
2023/04/25 00:04:15;;;;;;;25.38;4.03;;;;;;;;;;5087222;27;20051;-77
2023/04/25 00:06:41;;;;;;;29.92;5.03;;;;;;;;;;5087510;27;20101;-77
2023/04/25 00:09:08;;;;;;;22.83;4.57;;;;;;;;;;5083842;27;20047;-77
2023/04/25 00:11:35;;;;;;;23.92;4.55;;;;;;;;;;5084960;27;20047;-77
2023/04/25 00:14:02;;;;;;;25.40;4.68;;;;;;;;;;5086652;27;20047;-77
2023/04/25 00:16:29;;;;;;;26.83;4.40;;;;;;;;;;5090084;27;20122;-78
2023/04/25 00:18:55;;;;;;;30.58;5.13;;;;;;;;;;5086779;27;20046;-78
2023/04/25 00:21:24;;;;;;;19.35;3.80;;;;;;;;;;5085473;27;20072;-78
2023/04/25 00:23:50;;;;;;;17.13;4.50;;;;;;;;;;5089439;27;20051;-77
2023/04/25 00:26:16;;;;;;;17.40;4.07;;;;;;;;;;5062199;28;20044;-77
2023/04/25 00:28:42;;;;;;;18.65;3.40;;;;;;;;;;5063883;27;20444;-77
2023/04/25 00:31:08;;;;;;;21.25;3.22;;;;;;;;;;5091351;27;20058;-82
2023/04/25 00:33:34;;;;;;;23.02;3.78;;;;;;;;;;5072385;27;20051;-82
2023/04/25 00:36:00;;;;;;;28.38;4.20;;;;;;;;;;5083877;27;20051;-82
2023/04/25 00:38:26;;;;;;;24.73;3.30;;;;;;;;;;5082191;27;20047;-82
2023/04/25 00:40:52;;;;;;;18.67;3.33;;;;;;;;;;5079212;27;20049;-82
2023/04/25 00:43:19;;;;;;;17.50;3.58;;;;;;;;;;5083991;27;20039;-82
2023/04/25 00:45:47;;;;;;;23.80;3.65;;;;;;;;;;5083609;27;20083;-82
2023/04/25 00:48:14;;;;;;;21.83;3.42;;;;;;;;;;5060822;27;20043;-81
2023/04/25 00:50:40;;;;;;;22.30;5.22;;;;;;;;;;5061514;27;20130;-82
2023/04/25 00:53:09;;;;;;;25.02;4.30;;;;;;;;;;5082643;27;20092;-82
2023/04/25 00:55:36;;;;;;;16.58;3.13;;;;;;;;;;5086210;27;20055;-82
2023/04/25 00:58:02;;;;;;;14.70;2.83;;;;;;;;;;5069733;27;20052;-82
2023/04/25 01:00:28;;;;;;;17.25;2.85;;;;;;;;;;5082857;27;20040;-81
2023/04/25 01:02:54;;;;;;;23.17;3.45;;;;;;;;;;5070603;28;20035;-81
2023/04/25 01:05:20;;;;;;;20.55;3.80;;;;;;;;;;5084045;27;20096;-82
2023/04/25 01:07:47;;;;;;;11.75;2.47;;;;;;;;;;5084671;27;20051;-80
2023/04/25 01:10:13;;;;;;;13.02;2.38;;;;;;;;;;5082704;27;20043;-79
2023/04/25 01:12:40;;;;;;;15.68;2.83;;;;;;;;;;5083225;27;20044;-80
2023/04/25 01:15:06;;;;;;;23.35;4.15;;;;;;;;;;5074542;27;20040;-80
2023/04/25 01:17:33;;;;;;;25.67;3.72;;;;;;;;;;5084696;27;20043;-80
2023/04/25 01:19:59;;;;;;;14.43;2.90;;;;;;;;;;5082537;27;20054;-79
2023/04/25 01:22:26;;;;;;;17.38;3.50;;;;;;;;;;5083290;27;20131;-79
2023/04/25 01:24:52;;;;;;;18.77;3.83;;;;;;;;;;5083681;27;20122;-79
2023/04/25 01:27:18;;;;;;;23.25;2.90;;;;;;;;;;5075844;27;20400;-79
2023/04/25 01:29:45;;;;;;;26.00;3.75;;;;;;;;;;5063118;27;20087;-79
2023/04/25 01:32:11;;;;;;;14.48;3.35;;;;;;;;;;5083822;27;20048;-79
2023/04/25 01:34:37;;;;;;;23.85;4.30;;;;;;;;;;5086986;27;20047;-79
2023/04/25 01:37:03;;;;;;;16.60;2.83;;;;;;;;;;5076505;27;20130;-79
2023/04/25 01:39:29;;;;;;;16.20;2.78;;;;;;;;;;5077819;27;20086;-80
2023/04/25 01:41:56;;;;;;;19.83;3.75;;;;;;;;;;5081421;27;20051;-80
2023/04/25 01:44:22;;;;;;;16.95;2.78;;;;;;;;;;5085209;27;20031;-79
2023/04/25 01:46:48;;;;;;;18.98;2.67;;;;;;;;;;5082700;27;20035;-75
2023/04/25 01:49:14;;;;;;;22.48;4.43;;;;;;;;;;5084174;27;20278;-75
2023/04/25 01:51:40;;;;;;;19.35;2.63;;;;;;;;;;5082663;27;20180;-76
2023/04/25 01:54:07;;;;;;;14.48;2.13;;;;;;;;;;5096974;27;20051;-75
2023/04/25 01:56:33;;;;;;;17.63;2.72;;;;;;;;;;5058322;28;20043;-76
2023/04/25 01:58:59;;;;;;;15.23;2.90;;;;;;;;;;5084206;27;20071;-76
2023/04/25 02:01:26;;;;;;;17.08;2.75;;;;;;;;;;5086391;27;20134;-75
2023/04/25 02:03:52;;;;;;;11.18;2.20;;;;;;;;;;5080462;27;20074;-75
2023/04/25 02:06:18;;;;;;;12.77;3.38;;;;;;;;;;5082769;27;20142;-75
2023/04/25 02:08:44;;;;;;;17.08;3.40;;;;;;;;;;5059567;27;20130;-75
2023/04/25 02:11:10;;;;;;;17.40;3.13;;;;;;;;;;5081137;27;20048;-75
2023/04/25 02:13:36;;;;;;;19.02;2.60;;;;;;;;;;5083017;27;20121;-75
2023/04/25 02:16:02;;;;;;;12.75;3.40;;;;;;;;;;5060265;27;20483;-75
2023/04/25 02:18:28;;;;;;;19.45;2.85;;;;;;;;;;5059427;28;20039;-75
2023/04/25 02:20:54;;;;;;;17.00;2.75;;;;;;;;;;5074931;27;20042;-75
2023/04/25 02:23:21;;;;;;;15.02;2.95;;;;;;;;;;5066217;28;20055;-75
2023/04/25 02:25:47;;;;;;;17.48;3.72;;;;;;;;;;5085051;27;21752;-75
2023/04/25 02:28:13;;;;;;;15.93;4.75;;;;;;;;;;5082680;27;20035;-75
2023/04/25 02:30:39;;;;;;;14.15;2.55;;;;;;;;;;5081975;28;20054;-75
2023/04/25 02:33:05;;;;;;;13.20;2.13;;;;;;;;;;5080216;28;20133;-75
2023/04/25 02:35:31;;;;;;;11.30;2.83;;;;;;;;;;5083270;27;20448;-75
2023/04/25 02:37:57;;;;;;;12.48;2.60;;;;;;;;;;5084303;27;20044;-75
2023/04/25 02:40:23;;;;;;;11.98;3.05;;;;;;;;;;5086277;27;20088;-75
2023/04/25 02:42:50;;;;;;;16.60;2.80;;;;;;;;;;5085222;27;20109;-75
2023/04/25 02:45:16;;;;;;;12.65;2.45;;;;;;;;;;5087354;27;20036;-77
2023/04/25 02:47:42;;;;;;;13.90;2.25;;;;;;;;;;5086218;27;20027;-77
2023/04/25 02:50:08;;;;;;;7.40;1.70;;;;;;;;;;5085167;27;20048;-75
2023/04/25 02:52:34;;;;;;;15.88;2.50;;;;;;;;;;5087861;27;20100;-75
2023/04/25 02:55:00;;;;;;;8.57;2.20;;;;;;;;;;5063981;27;20043;-75
2023/04/25 02:57:26;;;;;;;10.73;2.25;;;;;;;;;;5075979;27;20067;-75
2023/04/25 02:59:52;;;;;;;12.65;2.25;;;;;;;;;;5089673;27;20656;-75
2023/04/25 03:02:18;;;;;;;12.93;2.50;;;;;;;;;;5090410;27;20125;-75
2023/04/25 03:04:44;;;;;;;11.40;2.53;;;;;;;;;;5075156;27;20068;-75
2023/04/25 03:07:11;;;;;;;11.50;2.00;;;;;;;;;;5085094;27;20103;-75
2023/04/25 03:09:37;;;;;;;5.38;1.55;;;;;;;;;;5091355;27;20039;-75
2023/04/25 03:12:03;;;;;;;6.63;2.17;;;;;;;;;;5096000;27;21723;-75
2023/04/25 03:14:29;;;;;;;6.00;1.88;;;;;;;;;;5090126;27;20039;-75
2023/04/25 03:16:56;;;;;;;7.78;1.55;;;;;;;;;;5089393;27;20058;-75
2023/04/25 03:19:22;;;;;;;5.40;1.75;;;;;;;;;;5097250;27;20032;-75
2023/04/25 03:21:48;;;;;;;12.75;2.38;;;;;;;;;;5084402;27;20031;-75
2023/04/25 03:24:15;;;;;;;9.57;1.88;;;;;;;;;;5114474;27;20046;-75
2023/04/25 03:26:41;;;;;;;11.20;3.47;;;;;;;;;;5100915;27;20039;-75
2023/04/25 03:29:07;;;;;;;15.88;2.40;;;;;;;;;;5100312;27;20081;-75
2023/04/25 03:31:33;;;;;;;16.33;2.35;;;;;;;;;;5083779;27;20035;-75
2023/04/25 03:33:59;;;;;;;15.98;2.47;;;;;;;;;;5114456;27;20047;-75
2023/04/25 03:36:25;;;;;;;12.73;2.38;;;;;;;;;;5111603;27;20055;-77
2023/04/25 03:38:51;;;;;;;19.58;2.92;;;;;;;;;;5107318;27;20093;-77
2023/04/25 03:41:17;;;;;;;17.45;2.78;;;;;;;;;;5101809;27;20078;-77
2023/04/25 03:43:43;;;;;;;11.68;2.30;;;;;;;;;;5089417;27;20070;-77
2023/04/25 03:46:09;;;;;;;11.70;2.80;;;;;;;;;;5064519;27;20043;-77
2023/04/25 03:48:35;;;;;;;14.13;2.55;;;;;;;;;;5087578;27;21396;-77
2023/04/25 03:51:02;;;;;;;12.45;2.33;;;;;;;;;;5064106;27;20035;-77
2023/04/25 03:53:28;;;;;;;15.20;2.40;;;;;;;;;;5086754;27;20047;-78
2023/04/25 03:55:54;;;;;;;15.82;3.85;;;;;;;;;;5086953;27;20109;-77
2023/04/25 03:58:22;;;;;;;16.73;2.30;;;;;;;;;;5086901;27;21100;-77
2023/04/25 04:00:49;;;;;;;11.60;2.90;;;;;;;;;;5083393;27;21053;-76
2023/04/25 04:03:15;;;;;;;15.25;2.78;;;;;;;;;;5084898;27;21027;-77
2023/04/25 04:05:41;;;;;;;11.30;2.50;;;;;;;;;;5062345;27;20140;-77
2023/04/25 04:08:07;;;;;;;9.43;2.08;;;;;;;;;;5057253;27;20048;-77
2023/04/25 04:10:33;;;;;;;12.27;2.33;;;;;;;;;;5081494;27;20048;-77
2023/04/25 04:12:59;;;;;;;11.52;2.47;;;;;;;;;;5086692;27;20050;-77
2023/04/25 04:15:25;;;;;;;9.82;2.25;;;;;;;;;;5086789;27;20051;-77
2023/04/25 04:17:51;;;;;;;8.32;1.58;;;;;;;;;;5083451;27;20046;-77
2023/04/25 04:20:17;;;;;;;14.18;2.47;;;;;;;;;;5086079;27;20648;-77
2023/04/25 04:22:43;;;;;;;9.50;1.60;;;;;;;;;;5086357;27;20058;-76
2023/04/25 04:25:11;;;;;;;13.88;1.75;;;;;;;;;;5086775;27;20039;-77
2023/04/25 04:27:37;;;;;;;9.48;1.77;;;;;;;;;;5063588;27;20075;-76
2023/04/25 04:30:04;;;;;;;13.00;2.00;;;;;;;;;;5083178;27;20066;-76
2023/04/25 04:32:30;;;;;;;11.25;2.13;;;;;;;;;;5084236;27;20045;-76
2023/04/25 04:34:57;;;;;;;17.08;2.53;;;;;;;;;;5078627;27;20047;-76
2023/04/25 04:37:23;;;;;;;9.18;1.95;;;;;;;;;;5080644;27;20049;-77
2023/04/25 04:39:50;;;;;;;16.38;2.35;;;;;;;;;;5081935;27;20058;-78
2023/04/25 04:42:16;;;;;;;12.05;1.98;;;;;;;;;;5061026;27;22009;-77
2023/04/25 04:44:44;;;;;;;7.50;1.80;;;;;;;;;;5079660;27;20532;-77
2023/04/25 04:47:10;;;;;;;5.78;1.58;;;;;;;;;;5077502;27;20065;-77
2023/04/25 04:49:36;;;;;;;14.75;2.45;;;;;;;;;;5080646;27;20096;-77
2023/04/25 04:52:02;;;;;;;11.98;1.70;;;;;;;;;;5062627;27;20479;-77
2023/04/25 04:54:28;;;;;;;12.57;1.95;;;;;;;;;;5082438;27;20135;-77
2023/04/25 04:56:55;;;;;;;8.82;1.48;;;;;;;;;;5077259;27;20076;-77
2023/04/25 04:59:21;;;;;;;12.68;1.92;;;;;;;;;;5071401;27;20516;-77
2023/04/25 05:01:47;;;;;;;15.60;1.95;;;;;;;;;;5079936;27;20762;-77
2023/04/25 05:04:13;;;;;;;10.00;1.67;;;;;;;;;;5071207;27;20101;-77
2023/04/25 05:06:40;;;;;;;6.10;1.73;;;;;;;;;;5073745;27;20095;-77
2023/04/25 05:09:06;;;;;;;9.88;1.90;;;;;;;;;;5080444;27;20067;-77
2023/04/25 05:11:32;;;;;;;13.00;2.80;;;;;;;;;;5085791;27;20089;-77
2023/04/25 05:13:58;;;;;;;12.50;2.05;;;;;;;;;;5085380;27;20043;-77
2023/04/25 05:16:25;;;;;;;12.80;1.98;;;;;;;;;;5087352;27;20162;-75
2023/04/25 05:18:51;;;;;;;11.88;1.90;;;;;;;;;;5067287;27;20035;-75
2023/04/25 05:21:17;;;;;;;12.80;2.70;;;;;;;;;;5083119;27;20050;-75
2023/04/25 05:23:43;;;;;;;12.07;1.83;;;;;;;;;;5084722;27;20100;-75
2023/04/25 05:26:13;;;;;;;11.05;1.85;;;;;;;;;;5083272;27;20039;-75
2023/04/25 05:28:40;;;;;;;8.90;2.00;;;;;;;;;;5084977;27;20046;-75
2023/04/25 05:31:06;;;;;;;9.95;2.13;;;;;;;;;;5089821;27;20158;-75
2023/04/25 05:33:33;;;;;;;13.20;1.80;;;;;;;;;;5087025;27;20638;-75
2023/04/25 05:35:59;;;;;;;18.63;3.55;;;;;;;;;;5087733;27;20062;-75
2023/04/25 05:38:25;;;;;;;13.60;2.30;;;;;;;;;;5088714;27;20511;-77
2023/04/25 05:40:51;;;;;;;14.15;2.50;;;;;;;;;;5088641;27;20120;-76
2023/04/25 05:43:18;;;;;;;16.67;2.35;;;;;;;;;;5073793;27;20039;-77
2023/04/25 05:45:44;;;;;;;13.25;2.63;;;;;;;;;;5096877;27;20102;-77
2023/04/25 05:48:10;;;;;;;9.60;1.70;;;;;;;;;;5066889;27;20039;-77
2023/04/25 05:50:36;;;;;;;12.45;1.80;;;;;;;;;;5083805;28;20057;-77
2023/04/25 05:53:02;;;;;;;13.40;1.75;;;;;;;;;;5093328;28;20067;-77
2023/04/25 05:55:28;;;;;;;14.20;2.40;;;;;;;;;;5092596;28;20122;-77
2023/04/25 05:57:54;;;;;;;10.32;1.85;;;;;;;;;;5093025;27;20063;-75
2023/04/25 06:00:22;;;;;;;7.32;1.60;;;;;;;;;;5085856;28;21050;-75
2023/04/25 06:02:48;;;;;;;10.10;1.58;;;;;;;;;;5097623;27;20856;-75
2023/04/25 06:05:14;;;;;;;12.02;2.08;;;;;;;;;;5081398;28;20036;-75
2023/04/25 06:07:40;;;;;;;9.63;1.70;;;;;;;;;;5090761;28;20066;-75
2023/04/25 06:10:07;;;;;;;12.77;2.97;;;;;;;;;;5092952;27;20046;-75
2023/04/25 06:12:33;;;;;;;10.02;1.85;;;;;;;;;;5093261;27;20504;-75
2023/04/25 06:15:00;;;;;;;12.05;2.65;;;;;;;;;;5094331;27;20039;-75
2023/04/25 06:17:26;;;;;;;9.77;2.10;;;;;;;;;;5092342;27;20035;-75
2023/04/25 06:19:52;;;;;;;7.57;1.83;;;;;;;;;;5106803;27;20836;-75
2023/04/25 06:22:18;;;;;;;14.98;1.95;;;;;;;;;;5093716;27;20050;-75
2023/04/25 06:24:45;;;;;;;10.13;1.65;;;;;;;;;;5091872;27;20484;-75
2023/04/25 06:27:11;;;;;;;9.65;1.73;;;;;;;;;;5091633;27;20051;-76
2023/04/25 06:29:37;;;;;;;10.18;1.80;;;;;;;;;;5089422;27;20068;-76
2023/04/25 06:32:04;;;;;;;15.07;2.65;;;;;;;;;;5091521;27;20097;-75
2023/04/25 06:34:30;;;;;;;8.13;1.70;;;;;;;;;;5091758;27;20962;-76
2023/04/25 06:36:56;;;;;;;8.15;1.88;;;;;;;;;;5083947;27;22101;-75
2023/04/25 06:39:23;;;;;;;4.90;1.05;;;;;;;;;;5089640;27;20092;-75
2023/04/25 06:41:49;;;;;;;7.78;1.83;;;;;;;;;;5092464;27;20061;-74
2023/04/25 06:44:15;;;;;;;9.10;1.60;;;;;;;;;;5082880;27;20783;-75
2023/04/25 06:46:42;;;;;;;10.80;1.60;;;;;;;;;;5091506;27;20078;-75
2023/04/25 06:49:08;;;;;;;10.90;1.85;;;;;;;;;;5090659;27;20036;-75
2023/04/25 06:51:34;;;;;;;15.90;2.22;;;;;;;;;;5088424;27;20044;-75
2023/04/25 06:54:00;;;;;;;7.03;1.70;;;;;;;;;;5088993;27;20064;-75
2023/04/25 06:56:27;;;;;;;8.82;1.40;;;;;;;;;;5063249;27;20062;-75
2023/04/25 06:58:53;;;;;;;10.05;2.00;;;;;;;;;;5086339;27;20059;-75
2023/04/25 07:01:19;;;;;;;9.32;1.33;;;;;;;;;;5088789;27;20043;-75
2023/04/25 07:03:46;;;;;;;15.10;1.75;;;;;;;;;;5090058;27;22384;-75
2023/04/25 07:06:12;;;;;;;18.88;2.38;;;;;;;;;;5086987;27;20043;-75
2023/04/25 07:08:38;;;;;;;9.98;1.40;;;;;;;;;;5081135;27;20044;-74
2023/04/25 07:11:04;;;;;;;8.77;1.40;;;;;;;;;;5094007;27;20075;-74
2023/04/25 07:13:30;;;;;;;8.27;1.13;;;;;;;;;;5073347;27;20047;-74
2023/04/25 07:15:56;;;;;;;5.35;0.98;;;;;;;;;;5074972;27;20208;-75
2023/04/25 07:18:23;;;;;;;6.40;1.45;;;;;;;;;;5085503;27;20052;-74
2023/04/25 07:20:49;;;;;;;7.75;1.60;;;;;;;;;;5086541;27;20046;-76
2023/04/25 07:23:15;;;;;;;6.40;1.40;;;;;;;;;;5086332;27;20071;-76
2023/04/25 07:25:41;;;;;;;7.85;1.58;;;;;;;;;;5086366;27;20043;-77
2023/04/25 07:28:07;;;;;;;8.68;1.52;;;;;;;;;;5063758;27;20039;-76
2023/04/25 07:30:34;;;;;;;9.40;1.75;;;;;;;;;;5091369;27;20555;-75
2023/04/25 07:33:00;;;;;;;6.65;1.27;;;;;;;;;;5083215;27;20479;-76
2023/04/25 07:35:26;;;;;;;9.43;1.83;;;;;;;;;;5089654;27;20082;-75
2023/04/25 07:37:52;;;;;;;11.48;1.55;;;;;;;;;;5074402;27;20082;-76
2023/04/25 07:40:19;;;;;;;9.65;1.80;;;;;;;;;;5088898;27;20043;-75
2023/04/25 07:42:45;;;;;;;7.85;1.83;;;;;;;;;;5082823;27;20051;-76
2023/04/25 07:45:11;;;;;;;10.25;2.10;;;;;;;;;;5090671;27;20043;-78
2023/04/25 07:47:38;;;;;;;10.68;1.27;;;;;;;;;;5083971;27;20048;-74
2023/04/25 07:50:04;;;;;;;9.82;1.95;;;;;;;;;;5090498;27;20035;-75
2023/04/25 07:52:31;;;;;;;9.38;1.40;;;;;;;;;;5088584;27;20070;-75
2023/04/25 07:54:58;;;;;;;8.75;1.90;;;;;;;;;;5091248;27;21029;-76
2023/04/25 07:57:24;;;;;;;12.95;3.10;;;;;;;;;;5067761;27;20049;-75
2023/04/25 07:59:50;;;;;;;22.05;1.80;;;;;;;;;;5088251;27;20132;-75
2023/04/25 08:02:16;;;;;;;8.77;1.27;;;;;;;;;;5089329;27;20066;-75
2023/04/25 08:04:43;;;;;;;8.18;1.63;;;;;;;;;;5088631;27;20126;-75
2023/04/25 08:07:09;;;;;;;8.65;1.90;;;;;;;;;;5090906;27;20055;-75
2023/04/25 08:09:36;;;;;;;13.27;2.00;;;;;;;;;;5097007;27;20042;-75
2023/04/25 08:12:03;;;;;;;10.45;1.77;;;;;;;;;;5100852;27;20039;-75
2023/04/25 08:14:31;;;;;;;10.48;2.05;;;;;;;;;;5102306;27;20102;-77
2023/04/25 08:16:57;;;;;;;9.70;1.63;;;;;;;;;;5110407;27;20047;-76
2023/04/25 08:19:23;;;;;;;12.75;1.63;;;;;;;;;;5107901;27;20077;-76
2023/04/25 08:21:51;;;;;;;9.38;1.65;;;;;;;;;;5108914;27;20044;-76
2023/04/25 08:24:17;;;;;;;6.20;2.15;;;;;;;;;;5107298;27;20067;-76
2023/04/25 08:26:43;;;;;;;6.55;1.25;;;;;;;;;;5094040;27;20048;-78
2023/04/25 08:29:09;;;;;;;13.75;1.98;;;;;;;;;;5093742;27;20042;-75
2023/04/25 08:31:36;;;;;;;12.38;2.00;;;;;;;;;;5105496;27;20514;-75
2023/04/25 08:34:02;;;;;;;5.57;1.58;;;;;;;;;;5105557;27;21146;-75
2023/04/25 08:36:28;;;;;;;9.70;1.30;;;;;;;;;;5107055;27;20066;-75
2023/04/25 08:38:54;;;;;;;6.50;1.60;;;;;;;;;;5085387;27;20036;-75
2023/04/25 08:41:22;;;;;;;8.57;1.75;;;;;;;;;;5088978;27;20072;-75
2023/04/25 08:43:49;;;;;;;6.13;1.08;;;;;;;;;;5089805;27;20429;-75
2023/04/25 08:46:17;;;;;;;11.70;1.67;;;;;;;;;;5074260;27;20044;-75
2023/04/25 08:48:45;;;;;;;11.55;1.60;;;;;;;;;;5068050;27;20072;-74
2023/04/25 08:51:16;;;;;;;8.95;1.10;;;;;;;;;;5084642;27;20051;-75
2023/04/25 08:53:42;;;;;;;10.70;2.03;;;;;;;;;;5070151;27;20047;-75
2023/04/25 08:56:09;;;;;;;10.52;1.73;;;;;;;;;;5084476;27;20047;-75
2023/04/25 08:58:36;;;;;;;6.40;1.55;;;;;;;;;;5093448;27;20043;-75
2023/04/25 09:01:02;;;;;;;11.10;1.67;;;;;;;;;;5092691;27;20108;-74
2023/04/25 09:03:28;;;;;;;12.68;3.15;;;;;;;;;;5091903;27;20043;-75
2023/04/25 09:05:55;;;;;;;14.75;1.50;;;;;;;;;;5093099;27;20075;-74
2023/04/25 09:08:21;;;;;;;12.38;2.00;;;;;;;;;;5091512;27;20725;-74
2023/04/25 09:10:47;;;;;;;9.27;1.60;;;;;;;;;;5088807;27;20052;-75
2023/04/25 09:13:15;;;;;;;16.63;2.60;;;;;;;;;;5089182;27;20057;-75
2023/04/25 09:15:51;;;;;;;10.88;1.63;;;;;;;;;;5087764;27;20052;-75
2023/04/25 09:18:27;;;;;;;9.38;1.90;;;;;;;;;;5090664;27;20059;-75
2023/04/25 09:20:58;;;;;;;10.55;2.08;;;;;;;;;;5081396;27;20044;-74
2023/04/25 09:23:24;;;;;;;11.70;2.15;;;;;;;;;;5087866;27;20127;-74
2023/04/25 09:25:52;;;;;;;11.43;2.00;;;;;;;;;;5074109;28;20171;-74
2023/04/25 09:28:27;;;;;;;9.43;1.77;;;;;;;;;;5092759;27;20035;-75
2023/04/25 09:30:59;;;;;;;13.30;2.42;;;;;;;;;;5087374;27;20047;-74
2023/04/25 09:33:32;;;;;;;12.98;2.00;;;;;;;;;;5064359;27;20054;-75
2023/04/25 09:36:03;;;;;;;9.30;2.40;;;;;;;;;;5064824;27;20047;-75
2023/04/25 09:38:30;;;;;;;4.93;1.17;;;;;;;;;;5084039;27;20055;-75
2023/04/25 09:40:56;;;;;;;10.15;1.90;;;;;;;;;;5088402;27;20043;-75
2023/04/25 09:43:25;;;;;;;6.72;1.25;;;;;;;;;;5088386;27;20396;-75
2023/04/25 09:45:53;;;;;;;8.27;1.42;;;;;;;;;;5088576;27;20421;-75
2023/04/25 09:48:20;;;;;;;10.38;1.50;;;;;;;;;;5091866;27;22651;-75
2023/04/25 09:51:08;;;;;;;13.90;2.85;;;;;;;;;;5087184;27;20070;-75
2023/04/25 09:53:41;;;;;;;4.72;1.35;;;;;;;;;;5088311;27;20145;-75
2023/04/25 09:56:09;;;;;;;10.48;1.88;;;;;;;;;;5071888;27;20039;-75
2023/04/25 09:58:36;;;;;;;11.13;2.17;;;;;;;;;;5089016;28;20054;-74
2023/04/25 10:01:05;;;;;;;7.90;1.77;;;;;;;;;;5083992;28;20039;-74
2023/04/25 10:03:32;;;;;;;11.73;1.95;;;;;;;;;;5088946;27;20047;-74
2023/04/25 10:06:02;;;;;;;13.30;2.20;;;;;;;;;;5088214;28;20044;-74
2023/04/25 10:08:33;;;;;;;9.50;2.33;;;;;;;;;;5082001;27;20063;-74
2023/04/25 10:11:09;;;;;;;10.70;1.67;;;;;;;;;;5087702;28;20066;-74
2023/04/25 10:13:36;;;;;;;12.20;3.17;;;;;;;;;;5085908;27;20101;-74
2023/04/25 10:16:03;;;;;;;9.60;2.30;;;;;;;;;;5086513;27;20039;-73
2023/04/25 10:18:30;;;;;;;13.77;2.60;;;;;;;;;;5086968;28;20112;-74
2023/04/25 10:20:57;;;;;;;8.65;1.77;;;;;;;;;;5084991;27;20035;-74
2023/04/25 10:23:24;;;;;;;7.35;1.60;;;;;;;;;;5086823;27;20043;-74
2023/04/25 10:25:51;;;;;;;8.38;2.13;;;;;;;;;;5079053;28;20051;-74
2023/04/25 10:28:18;;;;;;;8.48;2.22;;;;;;;;;;5078089;27;20417;-74
2023/04/25 10:31:02;;;;;;;6.20;1.55;;;;;;;;;;5086209;27;20052;-74
2023/04/25 10:33:36;;;;;;;11.23;1.65;;;;;;;;;;5079569;27;20043;-75
2023/04/25 10:36:22;;;;;;;9.05;1.40;;;;;;;;;;5086425;27;20140;-75
2023/04/25 10:38:52;;;;;;;8.85;1.75;;;;;;;;;;5080338;27;20070;-74
2023/04/25 10:41:19;;;;;;;9.55;1.45;;;;;;;;;;5086285;27;20047;-74
2023/04/25 10:43:49;;;;;;;9.02;1.90;;;;;;;;;;5084240;28;21267;-74
2023/04/25 10:46:30;;;;;;;9.32;1.60;;;;;;;;;;5083133;27;20043;-75
2023/04/25 10:49:00;;;;;;;8.13;1.73;;;;;;;;;;5061290;27;20047;-74
2023/04/25 10:51:26;;;;;;;14.38;1.85;;;;;;;;;;5085353;28;20511;-74
2023/04/25 10:53:55;;;;;;;15.32;2.10;;;;;;;;;;5083524;27;20051;-74
2023/04/25 10:56:23;;;;;;;12.40;2.00;;;;;;;;;;5089929;27;20133;-75
2023/04/25 10:58:49;;;;;;;8.50;1.65;;;;;;;;;;5087862;27;20597;-74
2023/04/25 11:01:16;;;;;;;14.50;1.80;;;;;;;;;;5091155;27;20054;-75
2023/04/25 11:03:43;;;;;;;13.07;2.05;;;;;;;;;;5089459;27;20046;-75
2023/04/25 11:06:29;;;;;;;5.55;1.50;;;;;;;;;;5092465;27;21110;-75
2023/04/25 11:08:55;;;;;;;6.43;1.40;;;;;;;;;;5047130;27;20059;-75
2023/04/25 11:11:21;;;;;;;8.25;1.58;;;;;;;;;;5090201;27;20055;-76
2023/04/25 11:13:49;;;;;;;16.85;1.70;;;;;;;;;;5092217;27;20044;-75
2023/04/25 11:16:15;;;;;;;12.07;2.65;;;;;;;;;;5094287;27;20071;-75
2023/04/25 11:18:42;;;;;;;8.85;1.50;;;;;;;;;;5075640;27;20069;-74
2023/04/25 11:21:08;;;;;;;7.25;1.60;;;;;;;;;;5092523;27;20036;-75
2023/04/25 11:23:34;;;;;;;7.78;1.42;;;;;;;;;;5096115;27;20500;-75
2023/04/25 11:26:01;;;;;;;11.85;2.00;;;;;;;;;;5090335;27;20055;-75
2023/04/25 11:28:30;;;;;;;8.07;1.83;;;;;;;;;;5090784;27;20059;-75
2023/04/25 11:30:56;;;;;;;5.78;1.23;;;;;;;;;;5093183;27;20578;-75
2023/04/25 11:33:29;;;;;;;5.93;1.73;;;;;;;;;;5094418;27;20039;-75
2023/04/25 11:35:56;;;;;;;11.85;1.60;;;;;;;;;;5088931;27;20051;-75
2023/04/25 11:38:23;;;;;;;8.15;1.35;;;;;;;;;;5075659;27;20445;-75
2023/04/25 11:40:55;;;;;;;10.13;1.42;;;;;;;;;;5090823;27;20142;-75
2023/04/25 11:43:22;;;;;;;5.70;1.60;;;;;;;;;;5090593;27;20147;-75
2023/04/25 11:45:49;;;;;;;12.90;1.63;;;;;;;;;;5070942;27;20044;-75
2023/04/25 11:48:15;;;;;;;12.48;2.28;;;;;;;;;;5089125;27;20126;-73
2023/04/25 11:50:42;;;;;;;11.68;2.53;;;;;;;;;;5092115;27;20039;-74
2023/04/25 11:53:08;;;;;;;24.52;3.53;;;;;;;;;;5089816;27;20533;-73
2023/04/25 11:55:35;;;;;;;10.32;1.90;;;;;;;;;;5090872;27;20071;-73
2023/04/25 11:58:02;;;;;;;8.07;1.85;;;;;;;;;;5080855;27;20115;-73
2023/04/25 12:00:28;;;;;;;9.93;2.08;;;;;;;;;;5067863;27;20179;-73
2023/04/25 12:02:55;;;;;;;12.95;1.92;;;;;;;;;;5089746;27;20045;-72
2023/04/25 12:05:25;;;;;;;9.77;1.55;;;;;;;;;;5090425;27;20097;-73
2023/04/25 12:07:51;;;;;;;7.88;1.80;;;;;;;;;;5089930;27;20056;-73
2023/04/25 12:10:17;;;;;;;11.02;2.00;;;;;;;;;;5100334;27;20040;-73
2023/04/25 12:12:47;;;;;;;15.55;2.22;;;;;;;;;;5088387;27;20100;-73
2023/04/25 12:15:20;;;;;;;14.93;2.30;;;;;;;;;;5089477;27;20031;-73
2023/04/25 12:17:52;;;;;;;14.15;2.10;;;;;;;;;;5091075;27;20032;-73
2023/04/25 12:20:24;;;;;;;10.52;2.08;;;;;;;;;;5073514;27;20237;-73
2023/04/25 12:22:51;;;;;;;10.77;2.25;;;;;;;;;;5086438;27;20046;-73
2023/04/25 12:25:36;;;;;;;12.23;2.72;;;;;;;;;;5088691;27;20043;-73
2023/04/25 12:28:12;;;;;;;12.98;1.98;;;;;;;;;;5091771;27;20041;-73
2023/04/25 12:31:00;;;;;;;9.73;1.52;;;;;;;;;;5092522;27;20057;-74
2023/04/25 12:33:27;;;;;;;12.88;2.25;;;;;;;;;;5095738;27;20126;-73
2023/04/25 12:35:54;;;;;;;8.13;1.88;;;;;;;;;;5110703;27;20134;-73
2023/04/25 12:38:23;;;;;;;6.85;1.30;;;;;;;;;;5095663;27;20051;-73
2023/04/25 12:40:49;;;;;;;10.52;2.28;;;;;;;;;;5090966;27;20126;-73
2023/04/25 12:43:15;;;;;;;11.43;2.30;;;;;;;;;;5079925;27;20260;-74
2023/04/25 12:45:41;;;;;;;12.35;1.85;;;;;;;;;;5068137;27;20039;-73
2023/04/25 12:48:07;;;;;;;9.82;1.63;;;;;;;;;;5075006;27;20054;-73
2023/04/25 12:50:33;;;;;;;7.57;1.50;;;;;;;;;;5095689;27;20537;-74
2023/04/25 12:52:59;;;;;;;6.68;1.45;;;;;;;;;;5094418;27;20039;-73
2023/04/25 12:55:25;;;;;;;10.63;1.80;;;;;;;;;;5092896;27;20150;-73
2023/04/25 12:57:52;;;;;;;12.82;1.30;;;;;;;;;;5088075;27;20089;-73
2023/04/25 13:00:19;;;;;;;8.30;1.52;;;;;;;;;;5089397;27;20503;-73
2023/04/25 13:02:46;;;;;;;8.07;1.70;;;;;;;;;;5088221;27;20084;-74
2023/04/25 13:05:13;;;;;;;11.65;2.00;;;;;;;;;;5085679;27;20039;-74
2023/04/25 13:07:39;;;;;;;19.55;2.10;;;;;;;;;;5090823;27;20048;-73
2023/04/25 13:10:07;;;;;;;7.03;1.77;;;;;;;;;;5091552;27;20387;-73
2023/04/25 13:12:33;;;;;;;11.07;2.10;;;;;;;;;;5077145;27;20036;-73
2023/04/25 13:14:59;;;;;;;4.28;1.05;;;;;;;;;;5101019;27;20169;-73
2023/04/25 13:17:25;;;;;;;8.13;1.50;;;;;;;;;;5094603;27;20992;-73
2023/04/25 13:19:51;;;;;;;10.32;1.98;;;;;;;;;;5096037;27;20043;-74
2023/04/25 13:22:19;;;;;;;14.40;1.88;;;;;;;;;;5090354;27;20039;-73
2023/04/25 13:24:46;;;;;;;7.93;1.63;;;;;;;;;;5083227;27;20079;-74
2023/04/25 13:27:12;;;;;;;15.68;1.88;;;;;;;;;;5100780;27;20095;-74
2023/04/25 13:29:40;;;;;;;9.35;1.50;;;;;;;;;;5092216;27;20074;-74
2023/04/25 13:32:06;;;;;;;5.25;1.48;;;;;;;;;;5092684;27;20048;-74
2023/04/25 13:34:33;;;;;;;10.00;1.67;;;;;;;;;;5089021;27;20039;-74
2023/04/25 13:37:00;;;;;;;14.43;2.33;;;;;;;;;;5088171;27;20047;-74
2023/04/25 13:39:26;;;;;;;5.93;1.33;;;;;;;;;;5065894;27;20056;-73
2023/04/25 13:41:52;;;;;;;4.60;1.52;;;;;;;;;;5087104;27;20040;-73
2023/04/25 13:44:18;;;;;;;5.28;1.20;;;;;;;;;;5088547;27;22263;-74
2023/04/25 13:46:46;;;;;;;6.00;1.40;;;;;;;;;;5088247;27;21255;-73
2023/04/25 13:49:12;;;;;;;8.77;1.95;;;;;;;;;;5088994;27;20039;-73
2023/04/25 13:51:38;;;;;;;6.22;1.35;;;;;;;;;;5087705;27;21836;-73
2023/04/25 13:54:05;;;;;;;7.25;1.83;;;;;;;;;;5088649;27;20059;-73
2023/04/25 13:56:31;;;;;;;8.05;1.50;;;;;;;;;;5087612;27;20055;-73
2023/04/25 13:58:58;;;;;;;8.38;1.70;;;;;;;;;;5084453;27;20593;-74
2023/04/25 14:01:24;;;;;;;9.45;2.47;;;;;;;;;;5088966;27;20059;-74
2023/04/25 14:03:50;;;;;;;10.07;1.70;;;;;;;;;;5087438;28;20051;-74
2023/04/25 14:06:22;;;;;;;8.73;1.25;;;;;;;;;;5069272;28;20050;-73
2023/04/25 14:08:48;;;;;;;8.35;1.50;;;;;;;;;;5087498;27;20059;-74
2023/04/25 14:11:14;;;;;;;7.20;1.50;;;;;;;;;;5088040;27;21693;-74
2023/04/25 14:13:40;;;;;;;5.70;1.17;;;;;;;;;;5063829;27;20051;-74
2023/04/25 14:16:07;;;;;;;8.15;1.38;;;;;;;;;;5058521;28;20058;-74
2023/04/25 14:18:33;;;;;;;7.22;2.22;;;;;;;;;;5088357;27;21980;-73
2023/04/25 14:21:01;;;;;;;10.63;2.17;;;;;;;;;;5101028;27;20039;-73
2023/04/25 14:23:27;;;;;;;8.88;1.60;;;;;;;;;;5086386;27;20121;-73
2023/04/25 14:25:54;;;;;;;7.85;2.35;;;;;;;;;;5086368;27;20459;-73
2023/04/25 14:28:20;;;;;;;7.13;1.10;;;;;;;;;;5090166;27;20036;-73
2023/04/25 14:30:46;;;;;;;11.23;1.55;;;;;;;;;;5093787;27;20932;-73
2023/04/25 14:33:13;;;;;;;4.80;1.42;;;;;;;;;;5085842;27;20055;-73
2023/04/25 14:35:39;;;;;;;10.52;1.55;;;;;;;;;;5098655;27;20410;-73